Time;durP1;ratioP1;P1;durP2;ratioP2;P2;SDS_P1;SDS_P2;PMS_P1;PMS_P2;Temp;Humidity;BMP_temperature;BMP_pressure;BME280_temperature;BME280_humidity;BME280_pressure;Samples;Min_cycle;Max_cycle;Signal;HPM_P1;HPM_P2
2022/01/11 00:02:02;;;;;;;45.47;41.67;;;;;;;9.70;100.00;102738.54;1911817;72;86495;-68
2022/01/11 00:07:46;;;;;;;48.20;43.67;;;;;;;9.75;100.00;102748.41;1977393;71;39704;-75
2022/01/11 00:13:31;;;;;;;48.63;43.87;;;;;;;9.67;100.00;102752.33;1888985;74;86895;-69
2022/01/11 00:19:16;;;;;;;48.07;43.63;;;;;;;9.63;100.00;102752.48;1888640;75;86588;-69
2022/01/11 00:25:01;;;;;;;50.17;45.37;;;;;;;9.68;100.00;102760.96;1920261;74;86486;-75
2022/01/11 00:30:45;;;;;;;49.07;44.47;;;;;;;9.71;100.00;102763.83;1801804;78;86362;-68
2022/01/11 00:36:41;;;;;;;49.63;44.87;;;;;;;9.72;100.00;102767.73;1882166;74;85626;-75
2022/01/11 00:42:17;;;;;;;50.20;45.73;;;;;;;9.66;100.00;102764.53;1877069;75;86542;-68
2022/01/11 00:48:02;;;;;;;51.57;47.10;;;;;;;9.74;100.00;102766.98;1926467;73;86418;-75
2022/01/11 00:53:46;;;;;;;53.33;48.00;;;;;;;9.69;100.00;102768.22;1986673;71;39602;-69
2022/01/11 00:59:30;;;;;;;54.57;49.40;;;;;;;9.71;100.00;102770.77;1887765;74;86803;-75
2022/01/11 01:05:17;;;;;;;52.67;47.53;;;;;;;9.79;100.00;102771.30;1906956;72;85742;-69
2022/01/11 01:11:00;;;;;;;53.13;48.17;;;;;;;9.73;100.00;102773.61;1913727;73;86359;-74
2022/01/11 01:16:44;;;;;;;52.53;47.73;;;;;;;9.73;100.00;102770.83;1896254;74;85752;-75
2022/01/11 01:22:30;;;;;;;54.87;49.60;;;;;;;9.69;100.00;102764.59;1801166;78;86475;-68
2022/01/11 01:28:14;;;;;;;53.60;48.63;;;;;;;9.67;100.00;102776.48;1923165;72;85344;-75
2022/01/11 01:33:59;;;;;;;53.73;48.40;;;;;;;9.67;100.00;102773.13;1950602;73;86496;-75
2022/01/11 01:39:44;;;;;;;53.50;48.70;;;;;;;9.70;100.00;102785.72;1795103;78;86207;-75
2022/01/11 01:45:28;;;;;;;54.10;49.10;;;;;;;9.65;100.00;102798.05;1807249;78;86224;-75
2022/01/11 01:51:13;;;;;;;53.57;48.93;;;;;;;9.62;100.00;102806.31;1899911;74;86982;-69
2022/01/11 01:56:59;;;;;;;56.23;50.83;;;;;;;9.63;100.00;102799.66;1822127;77;86217;-75
2022/01/11 02:02:44;;;;;;;53.57;48.63;;;;;;;9.65;100.00;102798.05;1803565;78;85909;-75
2022/01/11 02:08:28;;;;;;;52.40;47.53;;;;;;;9.52;100.00;102795.74;1798601;77;86484;-75
2022/01/11 02:14:12;;;;;;;54.03;48.77;;;;;;;9.50;100.00;102792.87;1900467;72;85789;-70
2022/01/11 02:19:57;;;;;;;51.97;47.40;;;;;;;9.43;100.00;102803.20;1973247;71;39732;-68
2022/01/11 02:25:44;;;;;;;52.37;47.70;;;;;;;9.34;100.00;102805.97;1919871;73;86529;-75
2022/01/11 02:31:27;;;;;;;51.57;46.60;;;;;;;9.33;100.00;102798.17;1809740;78;86115;-75
2022/01/11 02:37:13;;;;;;;52.83;48.10;;;;;;;9.33;100.00;102800.95;1915336;74;86243;-69
2022/01/11 02:42:59;;;;;;;52.50;47.90;;;;;;;9.20;100.00;102794.16;1937569;73;86766;-68
2022/01/11 02:48:43;;;;;;;49.97;45.43;;;;;;;9.18;100.00;102788.00;1811531;78;86084;-75
2022/01/11 02:54:27;;;;;;;51.93;47.17;;;;;;;9.18;100.00;102790.78;1809901;78;86398;-75
2022/01/11 03:00:15;;;;;;;52.40;47.80;;;;;;;9.08;100.00;102785.75;1911306;73;85574;-75
2022/01/11 03:06:02;;;;;;;49.23;45.03;;;;;;;9.09;100.00;102779.13;1917957;73;86442;-75
2022/01/11 03:11:49;;;;;;;48.83;44.83;;;;;;;9.14;100.00;102775.14;1947083;71;39511;-75
2022/01/11 03:17:33;;;;;;;48.93;44.63;;;;;;;9.25;100.00;102773.52;1835076;76;85793;-69
2022/01/11 03:23:18;;;;;;;46.63;42.93;;;;;;;9.26;100.00;102771.06;1872150;76;86696;-75
2022/01/11 03:29:01;;;;;;;47.37;43.30;;;;;;;9.36;100.00;102783.88;1937070;73;86123;-68
2022/01/11 03:34:46;;;;;;;46.97;43.27;;;;;;;9.49;100.00;102785.66;1983340;71;39689;-75
2022/01/11 03:40:30;;;;;;;46.53;42.37;;;;;;;9.53;100.00;102789.13;1909314;74;86308;-74
2022/01/11 03:46:14;;;;;;;47.47;43.73;;;;;;;9.39;100.00;102795.89;1918261;74;86107;-75
2022/01/11 03:51:58;;;;;;;47.97;44.07;;;;;;;9.40;100.00;102817.54;1823185;77;86556;-68
2022/01/11 03:57:43;;;;;;;47.87;44.03;;;;;;;9.40;100.00;102819.78;1822940;76;86089;-68
2022/01/11 04:03:27;;;;;;;46.50;42.90;;;;;;;9.45;100.00;102817.17;1800722;78;86503;-75
2022/01/11 04:09:12;;;;;;;48.10;43.80;;;;;;;9.59;100.00;102835.34;1928048;73;86810;-75
2022/01/11 04:14:56;;;;;;;48.73;44.97;;;;;;;9.69;100.00;102865.34;1984136;71;39529;-68
2022/01/11 04:20:41;;;;;;;46.17;42.53;;;;;;;9.50;100.00;102872.79;1831284;76;86592;-75
2022/01/11 04:26:25;;;;;;;45.93;42.43;;;;;;;9.50;100.00;102876.09;1894278;74;86859;-69
2022/01/11 04:32:10;;;;;;;46.97;43.37;;;;;;;9.65;100.00;102888.23;1904352;74;86593;-68
2022/01/11 04:37:55;;;;;;;43.83;40.33;;;;;;;9.61;100.00;102896.17;1978009;71;39553;-74
2022/01/11 04:43:39;;;;;;;44.43;41.00;;;;;;;9.49;100.00;102898.00;1845829;76;86517;-74
2022/01/11 04:49:24;;;;;;;45.00;41.50;;;;;;;9.40;100.00;102905.77;1873181;74;86850;-68
2022/01/11 04:55:10;;;;;;;45.40;41.73;;;;;;;9.33;100.00;102909.12;1924500;73;85763;-68
2022/01/11 05:00:54;;;;;;;44.60;41.10;;;;;;;9.47;100.00;102905.69;1901776;71;39519;-75
2022/01/11 05:06:37;;;;;;;44.37;40.87;;;;;;;9.35;100.00;102905.59;1833566;76;86241;-75
2022/01/11 05:12:21;;;;;;;44.17;40.97;;;;;;;9.40;100.00;102902.14;1904591;74;86224;-75
2022/01/11 05:18:06;;;;;;;46.27;42.43;;;;;;;9.41;100.00;102899.69;1912544;74;86419;-75
2022/01/11 05:23:50;;;;;;;45.27;41.97;;;;;;;9.62;100.00;102910.36;1956361;71;39685;-68
2022/01/11 05:29:34;;;;;;;44.77;41.20;;;;;;;9.51;100.00;102908.32;1835958;75;86112;-73
2022/01/11 05:35:21;;;;;;;44.57;41.20;;;;;;;9.67;100.00;102904.95;1837734;78;86388;-74
2022/01/11 05:41:07;;;;;;;47.20;43.40;;;;;;;9.65;100.00;102905.73;1912787;74;86205;-75
2022/01/11 05:46:52;;;;;;;45.23;41.83;;;;;;;9.60;100.00;102902.79;1985748;71;39601;-75
2022/01/11 05:52:38;;;;;;;45.40;41.90;;;;;;;9.60;100.00;102902.26;1854042;76;86678;-75
2022/01/11 05:58:24;;;;;;;44.73;41.30;;;;;;;9.66;100.00;102903.28;1871542;74;86288;-75
2022/01/11 06:04:08;;;;;;;45.20;41.60;;;;;;;9.60;100.00;102898.09;1907115;74;85288;-75
2022/01/11 06:09:52;;;;;;;43.30;40.00;;;;;;;9.62;100.00;102898.41;1979530;71;39642;-67
2022/01/11 06:15:36;;;;;;;44.53;41.13;;;;;;;9.70;100.00;102910.59;1959966;72;86416;-75
2022/01/11 06:21:21;;;;;;;42.97;39.57;;;;;;;9.69;100.00;102911.67;1884945;73;84990;-68
2022/01/11 06:27:05;;;;;;;43.63;40.13;;;;;;;9.67;100.00;102923.55;1948783;72;86303;-75
2022/01/11 06:32:49;;;;;;;43.53;40.07;;;;;;;9.71;100.00;102928.42;1982497;71;39631;-68
2022/01/11 06:38:35;;;;;;;44.93;41.43;;;;;;;9.68;100.00;102931.63;1970763;72;85436;-75
2022/01/11 06:44:19;;;;;;;44.77;41.17;;;;;;;9.76;100.00;102935.50;1840991;76;86412;-68
2022/01/11 06:50:04;;;;;;;49.43;45.43;;;;;;;9.81;100.00;102938.44;1947114;72;86606;-75
2022/01/11 06:55:53;;;;;;;47.63;43.57;;;;;;;9.78;100.00;102936.66;1983733;71;40118;-68
2022/01/11 07:01:38;;;;;;;45.60;41.87;;;;;;;9.83;100.00;102939.07;1855167;76;86061;-75
2022/01/11 07:07:24;;;;;;;47.47;43.47;;;;;;;9.89;100.00;102957.56;1890113;73;86440;-77
2022/01/11 07:13:08;;;;;;;46.60;42.57;;;;;;;9.88;100.00;102958.64;1901627;72;85158;-75
2022/01/11 07:18:52;;;;;;;46.60;42.73;;;;;;;9.86;100.00;102969.67;1986246;71;39553;-68
2022/01/11 07:24:36;;;;;;;47.23;43.23;;;;;;;9.87;100.00;102976.40;1852361;76;86904;-74
2022/01/11 07:30:22;;;;;;;51.33;47.20;;;;;;;9.88;100.00;102982.23;1895582;73;85461;-68
2022/01/11 07:36:07;;;;;;;50.87;46.77;;;;;;;9.84;100.00;102976.83;1912047;73;86180;-75
2022/01/11 07:41:50;;;;;;;53.57;49.27;;;;;;;9.87;100.00;102981.95;1979731;70;39646;-75
2022/01/11 07:47:34;;;;;;;50.43;46.23;;;;;;;9.84;100.00;102994.05;1838470;76;85466;-75
2022/01/11 07:53:19;;;;;;;48.93;44.70;;;;;;;9.93;100.00;103007.92;1873995;74;85477;-69
2022/01/11 07:59:03;;;;;;;50.97;47.13;;;;;;;9.93;100.00;103004.61;1900273;73;86225;-68
2022/01/11 08:04:48;;;;;;;52.47;48.20;;;;;;;9.93;100.00;103010.70;1978312;71;44201;-75
2022/01/11 08:10:32;;;;;;;50.70;46.70;;;;;;;9.92;100.00;103017.36;1886410;74;86162;-68
2022/01/11 08:16:16;;;;;;;48.13;44.23;;;;;;;9.83;100.00;103016.80;1878344;75;86759;-70
2022/01/11 08:22:01;;;;;;;51.27;47.37;;;;;;;9.98;100.00;103038.10;1910298;74;85650;-68
2022/01/11 08:27:45;;;;;;;51.10;46.80;;;;;;;9.96;100.00;103062.48;1890001;74;86244;-69
2022/01/11 08:33:29;;;;;;;52.63;48.27;;;;;;;9.96;100.00;103069.96;1809823;78;86832;-68
2022/01/11 08:39:14;;;;;;;51.30;47.37;;;;;;;9.95;100.00;103080.22;1917551;72;86491;-69
2022/01/11 08:45:00;;;;;;;50.40;46.40;;;;;;;10.09;100.00;103075.94;1817022;77;86772;-69
2022/01/11 08:50:44;;;;;;;53.47;49.07;;;;;;;10.06;100.00;103085.02;1808680;78;86381;-76
2022/01/11 08:56:29;;;;;;;53.57;48.93;;;;;;;10.02;100.00;103074.59;1797445;78;86509;-73
2022/01/11 09:02:32;;;;;;;49.97;45.73;;;;;;;10.08;100.00;103077.86;1886307;74;86818;-73
2022/01/11 09:08:18;;;;;;;48.07;43.80;;;;;;;10.18;100.00;103093.51;1879779;75;86722;-71
2022/01/11 09:14:02;;;;;;;51.37;46.57;;;;;;;10.21;100.00;103089.41;1922659;73;86450;-69
2022/01/11 09:19:46;;;;;;;50.17;45.60;;;;;;;10.23;100.00;103095.03;1985898;71;39722;-70
2022/01/11 09:25:31;;;;;;;50.97;46.17;;;;;;;10.21;100.00;103106.93;1888608;74;86526;-69
2022/01/11 09:31:17;;;;;;;50.87;46.30;;;;;;;10.33;100.00;103115.36;1907587;72;85564;-76
2022/01/11 09:37:04;;;;;;;48.07;44.13;;;;;;;10.26;100.00;103118.75;1928809;73;86766;-66
2022/01/11 09:46:12;;;;;;;51.93;47.50;;;;;;;10.28;100.00;103128.54;1911071;74;86577;-75
2022/01/11 09:51:57;;;;;;;51.57;47.17;;;;;;;10.34;100.00;103131.81;1929941;71;39782;-74
2022/01/11 09:57:42;;;;;;;50.37;46.30;;;;;;;10.39;100.00;103140.31;1836067;76;86628;-68
2022/01/11 10:03:28;;;;;;;53.00;48.60;;;;;;;10.36;100.00;103151.02;1800949;78;86427;-72
2022/01/11 10:09:18;;;;;;;52.40;48.00;;;;;;;10.43;100.00;103156.84;1910214;72;86630;-68
2022/01/11 10:15:03;;;;;;;55.57;51.23;;;;;;;10.42;100.00;103164.86;1941102;73;86489;-75
2022/01/11 10:20:53;;;;;;;52.33;48.00;;;;;;;10.46;100.00;103166.10;1975566;71;39651;-70
2022/01/11 10:26:47;;;;;;;54.73;50.23;;;;;;;10.56;100.00;103173.07;1957539;71;39584;-68
2022/01/11 10:32:45;;;;;;;52.80;48.83;;;;;;;10.60;100.00;103177.95;1976526;72;86639;-74
2022/01/11 10:38:33;;;;;;;49.93;45.93;;;;;;;10.60;100.00;103181.27;1876274;74;86057;-73
2022/01/11 10:44:35;;;;;;;51.70;47.13;;;;;;;10.64;100.00;103184.75;1870077;75;86430;-69
2022/01/11 10:50:27;;;;;;;57.00;52.50;;;;;;;10.75;100.00;103192.86;1888347;74;86650;-73
2022/01/11 10:56:11;;;;;;;52.77;48.60;;;;;;;10.75;100.00;103194.25;1916850;73;85675;-74
2022/01/11 11:01:58;;;;;;;52.43;48.20;;;;;;;10.72;100.00;103200.27;1980020;71;39680;-68
2022/01/11 11:07:59;;;;;;;53.43;49.10;;;;;;;10.77;100.00;103194.34;1944724;71;39735;-76
2022/01/11 11:17:00;;;;;;;52.17;47.97;;;;;;;10.88;100.00;103210.80;1895022;75;86341;-75
2022/01/11 11:22:56;;;;;;;56.47;52.07;;;;;;;10.78;100.00;103197.41;1974212;71;39522;-68
2022/01/11 11:28:41;;;;;;;52.83;48.80;;;;;;;10.78;100.00;103192.42;1857130;75;86709;-69
2022/01/11 11:34:29;;;;;;;52.80;48.93;;;;;;;10.79;100.00;103185.22;1898795;73;86406;-68
2022/01/11 11:37:03;;;;;;;53.07;49.17;;;;;;;10.77;100.00;103199.91;1836914;75;937625;-68
2022/01/11 11:42:57;;;;;;;50.67;46.87;;;;;;;10.86;100.00;103200.46;1931484;71;39427;-70
2022/01/11 11:48:44;;;;;;;50.10;46.30;;;;;;;10.87;100.00;103197.43;1967708;72;86872;-74
2022/01/11 11:54:30;;;;;;;52.47;48.60;;;;;;;10.95;100.00;103202.69;1801293;78;86790;-74
2022/01/11 12:00:20;;;;;;;51.03;46.83;;;;;;;10.99;100.00;103209.20;1887068;74;86111;-74
2022/01/11 12:06:06;;;;;;;50.83;46.93;;;;;;;10.99;100.00;103207.81;1906823;73;85596;-74
2022/01/11 12:12:16;;;;;;;52.83;48.77;;;;;;;11.03;100.00;103204.88;1941718;71;39544;-69
2022/01/11 12:18:14;;;;;;;49.23;45.43;;;;;;;11.10;100.00;103212.59;1974711;71;39833;-73
2022/01/11 12:24:03;;;;;;;50.33;46.53;;;;;;;11.11;100.00;103204.56;1921093;73;86458;-68
2022/01/11 12:29:57;;;;;;;52.80;48.70;;;;;;;11.14;100.00;103206.34;1955237;71;39521;-74
2022/01/11 12:39:19;;;;;;;48.30;44.27;;;;;;;11.18;100.00;103205.33;1962932;71;86346;-74
2022/01/11 12:41:53;;;;;;;49.48;45.58;;;;;;;11.24;100.00;103214.15;1880498;74;938693;-69
2022/01/11 12:44:31;;;;;;;51.37;47.23;;;;;;;11.34;100.00;103211.66;1885327;74;938932;-69
2022/01/11 12:46:59;;;;;;;52.60;48.77;;;;;;;11.27;100.00;103215.07;1913872;71;940802;-69
2022/01/11 12:49:31;;;;;;;49.87;46.00;;;;;;;11.25;100.00;103211.11;1892472;73;938934;-74
2022/01/11 12:52:09;;;;;;;50.50;46.40;;;;;;;11.31;100.00;103216.30;1898062;74;940830;-75
2022/01/11 12:54:41;;;;;;;51.02;47.03;;;;;;;11.34;100.00;103220.86;1876826;73;950880;-68
2022/01/11 12:57:14;;;;;;;52.27;48.07;;;;;;;11.32;100.00;103216.08;1894105;74;939725;-74
2022/01/11 12:59:47;;;;;;;51.88;47.67;;;;;;;11.35;100.00;103206.41;1909371;73;940756;-74
2022/01/11 13:02:23;;;;;;;50.93;46.63;;;;;;;11.34;100.00;103210.27;1893631;73;940858;-74
2022/01/11 13:04:55;;;;;;;52.27;47.77;;;;;;;11.34;100.00;103213.05;1890006;73;940710;-69
2022/01/11 13:07:29;;;;;;;52.97;48.30;;;;;;;11.35;100.00;103210.58;1893509;74;938933;-74
2022/01/11 13:10:18;;;;;;;53.63;49.07;;;;;;;11.37;100.00;103216.77;1941487;71;940732;-73
2022/01/11 13:12:53;;;;;;;51.80;47.30;;;;;;;11.38;100.00;103220.70;1879483;73;940867;-68
2022/01/11 13:15:32;;;;;;;53.90;49.17;;;;;;;11.33;100.00;103220.57;1897707;74;938731;-68
2022/01/11 13:18:10;;;;;;;52.47;48.00;;;;;;;11.34;100.00;103230.59;1888731;73;941251;-68
2022/01/11 13:20:42;;;;;;;55.00;50.40;;;;;;;11.35;100.00;103235.63;1904208;73;940832;-69
2022/01/11 13:23:17;;;;;;;55.47;50.63;;;;;;;11.36;100.00;103236.80;1891250;73;940733;-69
2022/01/11 13:29:03;;;;;;;58.53;53.40;;;;;;;11.36;100.00;103225.66;1913281;73;85290;-69
2022/01/11 13:34:49;;;;;;;57.97;53.07;;;;;;;11.39;100.00;103222.94;1984119;71;39427;-69
2022/01/11 13:40:44;;;;;;;59.63;54.47;;;;;;;11.45;100.00;103233.16;1836651;76;86611;-76
2022/01/11 13:46:30;;;;;;;64.17;58.57;;;;;;;11.49;100.00;103230.75;1805557;78;86777;-75
2022/01/11 13:52:16;;;;;;;64.60;58.83;;;;;;;11.46;100.00;103226.52;1944517;72;85809;-68
2022/01/11 13:58:01;;;;;;;65.37;59.33;;;;;;;11.48;100.00;103221.55;1917491;74;85267;-75
2022/01/11 14:03:49;;;;;;;66.90;60.63;;;;;;;11.50;100.00;103222.17;1942737;71;39821;-75
2022/01/11 14:09:37;;;;;;;73.50;66.57;;;;;;;11.48;100.00;103228.50;1853788;76;86433;-75
2022/01/11 14:15:27;;;;;;;64.17;58.03;;;;;;;11.49;100.00;103233.53;1871666;75;86728;-75
2022/01/11 14:21:13;;;;;;;64.10;58.17;;;;;;;11.47;100.00;103243.50;1918059;73;86573;-75
2022/01/11 14:27:08;;;;;;;60.63;54.87;;;;;;;11.55;100.00;103250.14;1946479;72;86710;-75
2022/01/11 14:32:53;;;;;;;59.10;53.90;;;;;;;11.54;100.00;103258.20;1952096;71;39544;-75
2022/01/11 14:38:44;;;;;;;62.43;56.60;;;;;;;11.54;100.00;103264.31;1836876;76;85743;-69
2022/01/11 14:44:30;;;;;;;60.37;54.70;;;;;;;11.55;100.00;103271.59;1884317;74;86305;-70
2022/01/11 14:50:11;;;;;;;66.17;59.83;;;;;;;11.54;100.00;103273.52;1965287;69;40310;-75
2022/01/11 14:53:00;;;;;;;66.25;59.98;;;;;;;11.65;100.00;103285.25;1811273;76;937488;-73
2022/01/11 14:55:52;;;;;;;63.60;57.67;;;;;;;11.62;100.00;103287.12;1907118;73;937943;-73
2022/01/11 14:58:25;;;;;;;61.57;55.87;;;;;;;11.60;100.00;103292.05;1915050;73;938006;-67
2022/01/11 15:04:15;;;;;;;58.33;52.93;;;;;;;11.58;100.00;103283.09;1944234;71;86263;-74
2022/01/11 15:10:00;;;;;;;58.80;53.40;;;;;;;11.52;100.00;103284.55;1919541;72;86401;-68
2022/01/11 15:15:44;;;;;;;52.53;48.03;;;;;;;11.58;100.00;103290.06;1800472;78;86621;-73
2022/01/11 15:21:28;;;;;;;53.73;49.07;;;;;;;11.49;100.00;103310.94;1798196;78;86410;-68
2022/01/11 15:27:12;;;;;;;55.40;50.83;;;;;;;11.57;100.00;103316.19;1961340;72;86373;-72
2022/01/11 15:32:56;;;;;;;53.57;48.97;;;;;;;11.41;100.00;103312.64;1977562;71;39729;-73
2022/01/11 15:38:40;;;;;;;54.50;49.93;;;;;;;11.50;100.00;103326.56;1846949;76;86788;-73
2022/01/11 15:44:27;;;;;;;51.37;47.07;;;;;;;11.43;100.00;103329.94;1902772;74;85314;-74
2022/01/11 15:50:12;;;;;;;55.03;50.17;;;;;;;11.48;100.00;103332.89;1916334;74;86681;-67
2022/01/11 15:56:00;;;;;;;54.20;49.50;;;;;;;11.47;100.00;103340.09;1977294;71;39766;-73
2022/01/11 16:01:45;;;;;;;55.43;50.63;;;;;;;11.45;100.00;103343.63;1892412;74;86565;-74
2022/01/11 16:07:29;;;;;;;57.47;52.77;;;;;;;11.39;100.00;103352.35;1809229;78;85149;-75
2022/01/11 16:13:16;;;;;;;54.43;49.67;;;;;;;11.49;100.00;103365.21;1883300;73;86516;-67
2022/01/11 16:19:01;;;;;;;54.30;49.93;;;;;;;11.48;100.00;103369.07;1937141;73;86097;-68
2022/01/11 16:24:46;;;;;;;53.80;49.30;;;;;;;11.46;100.00;103375.96;1987593;71;39654;-74
2022/01/11 16:30:32;;;;;;;57.77;52.77;;;;;;;11.46;100.00;103382.39;1795170;78;86416;-74
2022/01/11 16:36:15;;;;;;;56.03;51.13;;;;;;;11.47;100.00;103388.23;1909198;74;86752;-68
2022/01/11 16:48:03;;;;;;;53.40;48.50;;;;;;;11.45;100.00;103389.02;1932254;73;85613;-74
2022/01/11 16:53:47;;;;;;;52.83;48.10;;;;;;;11.48;100.00;103407.19;1978915;71;39487;-69
2022/01/11 16:59:31;;;;;;;53.67;48.73;;;;;;;11.37;100.00;103407.41;1891203;74;85639;-73
2022/01/11 17:05:15;;;;;;;55.17;50.27;;;;;;;11.38;100.00;103416.91;1853933;75;86431;-73
2022/01/11 17:11:01;;;;;;;52.80;47.90;;;;;;;11.38;100.00;103430.00;1901022;72;86554;-72
2022/01/11 17:16:46;;;;;;;53.97;48.60;;;;;;;11.28;100.00;103432.42;1950459;71;39740;-73
2022/01/11 17:22:30;;;;;;;51.37;46.30;;;;;;;11.27;100.00;103429.33;1877098;75;86490;-69
2022/01/11 17:28:13;;;;;;;54.93;49.97;;;;;;;11.35;100.00;103445.20;1922958;73;85666;-74
2022/01/11 17:34:05;;;;;;;55.17;50.47;;;;;;;11.23;100.00;103453.97;1896109;74;85962;-67
2022/01/11 17:39:51;;;;;;;55.90;51.23;;;;;;;11.22;100.00;103473.67;1984713;71;39693;-67
2022/01/11 17:45:37;;;;;;;52.27;48.27;;;;;;;11.14;100.00;103485.93;1782502;79;86210;-67
2022/01/11 17:51:24;;;;;;;57.10;52.33;;;;;;;10.93;100.00;103491.84;1884486;73;86422;-67
2022/01/11 17:57:11;;;;;;;56.83;52.40;;;;;;;10.85;100.00;103505.48;1919675;73;86722;-75
2022/01/11 18:02:55;;;;;;;60.03;55.30;;;;;;;10.87;100.00;103522.78;1937965;71;39503;-76
2022/01/11 18:08:41;;;;;;;57.53;52.43;;;;;;;10.84;100.00;103526.02;1878747;75;86727;-76
2022/01/11 18:14:27;;;;;;;59.00;54.07;;;;;;;10.75;100.00;103545.42;1883847;74;86727;-75
2022/01/11 18:20:13;;;;;;;60.73;55.27;;;;;;;10.80;100.00;103553.10;1917637;74;86528;-75
2022/01/11 18:25:58;;;;;;;61.77;56.50;;;;;;;10.77;100.00;103562.75;1950992;71;39558;-74
2022/01/11 18:31:41;;;;;;;60.70;55.37;;;;;;;10.79;100.00;103577.27;1842217;76;85573;-74
2022/01/11 18:37:26;;;;;;;63.20;57.53;;;;;;;10.66;100.00;103583.41;1870774;75;86439;-75
2022/01/11 18:43:12;;;;;;;66.53;60.63;;;;;;;10.75;100.00;103592.69;1912578;74;86486;-74
2022/01/11 18:48:58;;;;;;;66.73;60.90;;;;;;;10.59;100.00;103598.73;1983220;71;39539;-74
2022/01/11 18:54:46;;;;;;;64.60;58.67;;;;;;;10.59;100.00;103605.69;1830468;76;86649;-73
2022/01/11 19:00:30;;;;;;;67.90;62.20;;;;;;;10.61;100.00;103611.04;1887306;74;86700;-75
2022/01/11 19:06:17;;;;;;;62.00;56.60;;;;;;;10.58;100.00;103619.26;1938240;73;86543;-74
2022/01/11 19:12:02;;;;;;;61.67;56.43;;;;;;;10.52;100.00;103615.98;1937592;73;86577;-74
2022/01/11 19:17:48;;;;;;;60.00;54.10;;;;;;;10.52;100.00;103608.17;1981727;71;39584;-73
2022/01/11 19:23:31;;;;;;;62.53;56.73;;;;;;;10.53;100.00;103609.85;1889586;74;85576;-74
2022/01/11 19:29:14;;;;;;;62.73;56.67;;;;;;;10.53;100.00;103622.36;1945209;73;86542;-74
2022/01/11 19:34:59;;;;;;;64.03;57.80;;;;;;;10.50;100.00;103627.83;1916902;73;86231;-76
2022/01/11 19:40:44;;;;;;;63.27;56.67;;;;;;;10.44;100.00;103636.49;1800993;78;86463;-74
2022/01/11 19:46:30;;;;;;;61.70;55.70;;;;;;;10.33;100.00;103643.25;1809398;78;85887;-73
2022/01/11 19:52:16;;;;;;;56.83;51.13;;;;;;;10.24;100.00;103644.02;1837167;76;86329;-72
2022/01/11 19:58:01;;;;;;;61.10;55.00;;;;;;;10.35;100.00;103648.94;1921178;73;86509;-74
2022/01/11 20:03:45;;;;;;;58.40;52.53;;;;;;;10.32;100.00;103654.04;1872252;74;85472;-74
2022/01/11 20:09:30;;;;;;;60.60;54.97;;;;;;;10.28;100.00;103656.40;1809687;78;86399;-74
2022/01/11 20:15:19;;;;;;;59.73;54.13;;;;;;;10.29;100.00;103676.17;1927891;71;86260;-70
2022/01/11 20:21:05;;;;;;;58.93;52.77;;;;;;;10.25;100.00;103680.98;1933811;71;86599;-70
2022/01/11 20:32:49;;;;;;;57.47;51.40;;;;;;;10.29;100.00;103705.88;1944318;71;39672;-70
2022/01/11 20:38:36;;;;;;;56.67;51.13;;;;;;;10.16;100.00;103702.57;1815712;76;85613;-70
2022/01/11 20:44:21;;;;;;;56.67;48.70;;;;;;;10.20;100.00;103715.49;1881934;74;86385;-71
2022/01/11 20:50:27;;;;;;;52.90;47.77;;;;;;;10.19;100.00;103707.69;1846432;76;86135;-69
2022/01/11 20:56:00;;;;;;;51.40;46.03;;;;;;;10.11;100.00;103722.28;1977837;71;39520;-72
2022/01/11 21:01:45;;;;;;;49.80;45.00;;;;;;;10.17;100.00;103734.84;1875107;74;86648;-73
2022/01/11 21:07:29;;;;;;;52.50;46.63;;;;;;;10.00;100.00;103725.17;1798639;78;86425;-70
2022/01/11 21:13:13;;;;;;;51.10;45.63;;;;;;;9.98;100.00;103731.45;1908470;73;86323;-71
2022/01/11 21:24:59;;;;;;;53.33;48.00;;;;;;;10.01;100.00;103751.89;1816160;77;85551;-71
2022/01/11 21:30:42;;;;;;;52.37;47.20;;;;;;;9.99;100.00;103767.36;1838555;76;86209;-72
2022/01/11 21:36:18;;;;;;;54.90;48.77;;;;;;;9.93;100.00;103782.08;1792117;79;86472;-69
2022/01/11 21:38:49;;;;;;;53.73;48.00;;;;;;;10.00;100.00;103798.77;1726572;80;936625;-69
2022/01/11 21:41:21;;;;;;;54.90;49.53;;;;;;;9.99;100.00;103797.91;1737796;81;938838;-69
2022/01/11 21:43:51;;;;;;;55.20;49.17;;;;;;;9.78;100.00;103774.99;1726472;80;937880;-72
2022/01/11 21:46:21;;;;;;;50.40;44.90;;;;;;;9.85;100.00;103795.29;1737838;80;937009;-70
2022/01/11 21:52:09;;;;;;;53.67;48.03;;;;;;;9.69;100.00;103796.53;1903573;72;86276;-73
2022/01/11 21:57:55;;;;;;;53.67;48.73;;;;;;;9.71;100.00;103800.49;1977711;71;39623;-72
2022/01/11 22:03:40;;;;;;;54.50;48.73;;;;;;;9.75;100.00;103804.04;1824986;77;86286;-71
2022/01/11 22:09:24;;;;;;;54.97;49.63;;;;;;;9.68;100.00;103788.39;1896725;73;86627;-71
2022/01/11 22:15:30;;;;;;;54.37;49.10;;;;;;;9.55;100.00;103782.27;1898578;73;86312;-71
2022/01/11 22:21:02;;;;;;;55.20;49.13;;;;;;;9.36;100.00;103772.80;1912586;72;86293;-72
2022/01/11 22:26:47;;;;;;;56.67;51.10;;;;;;;9.40;100.00;103787.11;1977135;71;39717;-71
2022/01/11 22:32:33;;;;;;;56.03;50.83;;;;;;;9.26;100.00;103797.80;1809029;78;86380;-71
2022/01/11 22:38:17;;;;;;;58.13;52.93;;;;;;;9.28;100.00;103823.44;1883063;75;86194;-73
2022/01/11 22:44:02;;;;;;;55.10;49.90;;;;;;;8.88;100.00;103816.23;1911518;72;86514;-71
2022/01/11 22:49:46;;;;;;;56.37;50.77;;;;;;;8.76;100.00;103816.45;1799879;78;86458;-71
2022/01/11 22:55:32;;;;;;;54.13;49.27;;;;;;;8.59;100.00;103807.58;1898124;74;86375;-70
2022/01/11 23:01:17;;;;;;;58.37;52.87;;;;;;;8.55;100.00;103812.33;1781691;79;86161;-71
2022/01/11 23:07:01;;;;;;;56.30;50.80;;;;;;;8.49;100.00;103825.59;1911878;73;85560;-73
2022/01/11 23:13:00;;;;;;;58.47;52.93;;;;;;;8.37;100.00;103836.87;1974919;71;39614;-71
2022/01/11 23:18:37;;;;;;;57.83;52.60;;;;;;;8.30;100.00;103856.17;1969745;72;85582;-72
2022/01/11 23:24:23;;;;;;;54.87;49.47;;;;;;;7.90;100.00;103856.76;1885755;73;86716;-71
2022/01/11 23:30:09;;;;;;;56.00;50.90;;;;;;;7.65;100.00;103854.33;1910343;74;86458;-70
2022/01/11 23:35:53;;;;;;;55.77;50.60;;;;;;;7.63;100.00;103861.95;1985137;71;39501;-72
2022/01/11 23:41:48;;;;;;;56.23;51.27;;;;;;;7.64;100.00;103860.05;1841602;76;86533;-74
2022/01/11 23:47:29;;;;;;;55.40;50.17;;;;;;;7.47;100.00;103860.77;1808189;78;85601;-74
2022/01/11 23:53:14;;;;;;;56.67;51.70;;;;;;;7.27;100.00;103854.94;1911773;74;86594;-73
2022/01/11 23:58:58;;;;;;;56.43;51.33;;;;;;;7.28;100.00;103863.57;1918972;71;39693;-73
